createdAt,value
2023-01-27T00:00:19.146Z,6.15
2023-01-27T00:02:46.439Z,6.28
2023-01-27T00:05:14.668Z,6.18
2023-01-27T00:07:45.977Z,6.90
2023-01-27T00:10:17.708Z,6.88
2023-01-27T00:13:03.933Z,7.18
2023-01-27T00:15:31.855Z,6.57
2023-01-27T00:17:59.089Z,6.70
2023-01-27T00:20:45.017Z,6.88
2023-01-27T00:23:34.936Z,7.00
2023-01-27T00:26:06.405Z,7.18
2023-01-27T00:28:37.339Z,7.43
2023-01-27T00:31:04.706Z,7.78
2023-01-27T00:33:32.241Z,7.25
2023-01-27T00:35:59.537Z,7.38
2023-01-27T00:38:27.711Z,6.88
2023-01-27T00:41:13.459Z,7.68
2023-01-27T00:43:40.835Z,7.00
2023-01-27T00:46:08.529Z,6.78
2023-01-27T00:48:35.987Z,6.68
2023-01-27T00:51:03.147Z,6.82
2023-01-27T00:53:30.728Z,6.22
2023-01-27T00:55:58.502Z,5.90
2023-01-27T00:58:26.323Z,6.57
2023-01-27T01:00:54.283Z,6.25
2023-01-27T01:03:21.913Z,5.03
2023-01-27T01:05:49.489Z,5.82
2023-01-27T01:08:16.656Z,6.18
2023-01-27T01:10:45.257Z,6.22
2023-01-27T01:13:12.457Z,6.10
2023-01-27T01:15:40.672Z,5.82
2023-01-27T01:18:08.561Z,6.22
2023-01-27T01:20:39.707Z,6.30
2023-01-27T01:23:07.605Z,5.68
2023-01-27T01:25:35.119Z,5.53
2023-01-27T01:28:02.633Z,6.22
2023-01-27T01:30:30.425Z,6.53
2023-01-27T01:32:58.385Z,6.05
2023-01-27T01:35:25.730Z,6.47
2023-01-27T01:37:53.869Z,6.20
2023-01-27T01:40:21.861Z,6.10
2023-01-27T01:42:54.817Z,6.82
2023-01-27T01:45:36.333Z,4.93
2023-01-27T01:48:09.344Z,6.00
2023-01-27T01:50:36.965Z,6.38
2023-01-27T01:53:05.503Z,5.80
2023-01-27T01:55:34.349Z,5.45
2023-01-27T01:58:02.599Z,5.38
2023-01-27T02:00:29.791Z,4.65
2023-01-27T02:02:57.131Z,5.20
2023-01-27T02:05:38.503Z,4.80
2023-01-27T02:08:08.968Z,5.35
2023-01-27T02:10:36.207Z,4.95
2023-01-27T02:13:03.492Z,5.20
2023-01-27T02:15:31.516Z,5.90
2023-01-27T02:17:59.955Z,5.07
2023-01-27T02:20:47.104Z,5.00
2023-01-27T02:23:23.331Z,5.15
2023-01-27T02:26:02.368Z,5.57
2023-01-27T02:28:30.646Z,6.35
2023-01-27T02:30:58.498Z,6.32
2023-01-27T02:33:25.849Z,6.15
2023-01-27T02:36:04.554Z,6.95
2023-01-27T02:38:39.470Z,6.68
2023-01-27T02:41:12.795Z,7.32
2023-01-27T02:43:40.035Z,7.78
2023-01-27T02:46:07.225Z,7.72
2023-01-27T02:48:34.380Z,7.65
2023-01-27T02:51:01.659Z,7.05
2023-01-27T02:53:28.785Z,6.43
2023-01-27T02:55:55.964Z,6.20
2023-01-27T02:58:23.243Z,6.88
2023-01-27T03:00:50.410Z,6.65
2023-01-27T03:03:17.575Z,6.20
2023-01-27T03:05:45.943Z,6.18
2023-01-27T03:08:13.089Z,6.07
2023-01-27T03:10:40.246Z,6.53
2023-01-27T03:13:07.363Z,6.28
2023-01-27T03:15:53.192Z,5.55
2023-01-27T03:18:22.453Z,6.25
2023-01-27T03:20:50.089Z,5.80
2023-01-27T03:23:18.383Z,6.68
2023-01-27T03:25:46.765Z,6.18
2023-01-27T03:28:13.909Z,6.15
2023-01-27T03:30:41.581Z,6.90
2023-01-27T03:33:08.887Z,6.25
2023-01-27T03:35:39.822Z,6.25
2023-01-27T03:38:30.123Z,6.32
2023-01-27T03:41:15.977Z,7.22
2023-01-27T03:44:01.872Z,6.53
2023-01-27T03:46:29.103Z,6.55
2023-01-27T03:48:56.832Z,6.32
2023-01-27T03:51:25.519Z,5.90
2023-01-27T03:53:52.871Z,5.57
2023-01-27T03:56:20.774Z,6.30
2023-01-27T03:58:49.463Z,5.85
2023-01-27T04:01:21.292Z,5.80
2023-01-27T04:04:07.893Z,5.78
2023-01-27T04:06:55.340Z,5.75
2023-01-27T04:09:25.638Z,7.00
2023-01-27T04:11:56.056Z,6.20
2023-01-27T04:14:24.697Z,7.15
2023-01-27T04:16:53.444Z,6.75
2023-01-27T04:19:20.886Z,7.47
2023-01-27T04:21:48.477Z,7.63
2023-01-27T04:24:25.716Z,7.05
2023-01-27T04:26:54.953Z,7.60
2023-01-27T04:29:23.496Z,7.13
2023-01-27T04:31:50.738Z,7.88
2023-01-27T04:34:18.257Z,7.35
2023-01-27T04:36:45.751Z,8.52
2023-01-27T04:39:13.032Z,7.13
2023-01-27T04:41:40.357Z,8.13
2023-01-27T04:44:07.841Z,7.53
2023-01-27T04:46:35.567Z,7.68
2023-01-27T04:49:02.744Z,7.13
2023-01-27T04:51:30.130Z,7.03
2023-01-27T04:53:57.522Z,6.70
2023-01-27T04:56:32.502Z,6.88
2023-01-27T04:59:00.680Z,7.40
2023-01-27T05:01:28.397Z,7.32
2023-01-27T05:03:55.821Z,7.43
2023-01-27T05:06:23.548Z,7.30
2023-01-27T05:08:50.956Z,7.78
2023-01-27T05:11:18.601Z,8.40
2023-01-27T05:13:45.798Z,7.70
2023-01-27T05:16:14.345Z,7.85
2023-01-27T05:18:42.102Z,7.75
2023-01-27T05:21:09.971Z,7.63
2023-01-27T05:23:37.277Z,8.13
2023-01-27T05:26:06.702Z,8.40
2023-01-27T05:28:34.198Z,8.13
2023-01-27T05:31:02.888Z,7.75
2023-01-27T05:33:30.265Z,8.35
2023-01-27T05:36:01.309Z,7.75
2023-01-27T05:38:28.837Z,8.18
2023-01-27T05:40:57.439Z,7.78
2023-01-27T05:43:25.213Z,7.65
2023-01-27T05:45:52.488Z,6.63
2023-01-27T05:48:19.658Z,7.00
2023-01-27T05:50:54.647Z,7.72
2023-01-27T05:53:23.024Z,7.43
2023-01-27T05:55:50.633Z,6.75
2023-01-27T05:58:17.859Z,7.65
2023-01-27T06:00:45.073Z,7.43
2023-01-27T06:03:12.439Z,6.32
2023-01-27T06:05:39.620Z,7.28
2023-01-27T06:08:06.883Z,7.85
2023-01-27T06:10:37.217Z,8.05
2023-01-27T06:13:04.583Z,8.40
2023-01-27T06:15:32.119Z,7.55
2023-01-27T06:17:59.277Z,9.07
2023-01-27T06:20:26.524Z,8.23
2023-01-27T06:22:53.734Z,9.00
2023-01-27T06:25:20.950Z,8.05
2023-01-27T06:27:48.573Z,9.43
2023-01-27T06:30:15.848Z,9.13
2023-01-27T06:32:43.115Z,8.80
2023-01-27T06:35:10.345Z,9.13
2023-01-27T06:37:37.630Z,9.40
2023-01-27T06:40:05.702Z,9.18
2023-01-27T06:42:32.987Z,8.98
2023-01-27T06:45:00.116Z,9.55
2023-01-27T06:47:27.526Z,8.73
2023-01-27T06:49:54.862Z,9.07
2023-01-27T06:52:21.997Z,8.82
2023-01-27T06:54:49.154Z,8.45
2023-01-27T06:57:16.461Z,9.38
2023-01-27T06:59:43.640Z,9.00
2023-01-27T07:02:13.509Z,9.40
2023-01-27T07:04:40.749Z,9.75
2023-01-27T07:07:08.150Z,9.00
2023-01-27T07:09:51.566Z,10.00
2023-01-27T07:12:19.378Z,9.63
2023-01-27T07:14:46.527Z,8.93
2023-01-27T07:17:13.630Z,9.75
2023-01-27T07:19:40.938Z,8.68
2023-01-27T07:22:08.119Z,9.95
2023-01-27T07:24:35.467Z,8.93
2023-01-27T07:27:02.672Z,9.10
2023-01-27T07:29:29.864Z,8.82
2023-01-27T07:31:57.080Z,9.38
2023-01-27T07:34:24.259Z,9.55
2023-01-27T07:36:52.386Z,9.10
2023-01-27T07:39:19.609Z,9.63
2023-01-27T07:41:48.684Z,9.18
2023-01-27T07:44:16.161Z,9.93
2023-01-27T07:46:43.292Z,10.20
2023-01-27T07:49:12.698Z,9.38
2023-01-27T07:51:40.014Z,9.30
2023-01-27T07:54:07.196Z,9.00
2023-01-27T07:56:36.330Z,8.57
2023-01-27T07:59:03.803Z,9.13
2023-01-27T08:01:31.337Z,8.07
2023-01-27T08:03:58.509Z,9.02
2023-01-27T08:06:25.644Z,9.88
2023-01-27T08:08:52.735Z,8.25
2023-01-27T08:11:20.163Z,8.73
2023-01-27T08:13:47.285Z,8.60
2023-01-27T08:16:15.987Z,9.50
2023-01-27T08:18:43.205Z,9.07
2023-01-27T08:21:11.633Z,8.93
2023-01-27T08:23:38.778Z,8.48
2023-01-27T08:26:06.905Z,8.68
2023-01-27T08:28:34.755Z,9.00
2023-01-27T08:31:06.000Z,8.80
2023-01-27T08:33:33.228Z,8.90
2023-01-27T08:36:07.618Z,9.20
2023-01-27T08:38:34.928Z,8.63
2023-01-27T08:41:06.025Z,8.50
2023-01-27T08:43:34.305Z,8.15
2023-01-27T08:46:02.244Z,8.88
2023-01-27T08:48:30.344Z,8.02
2023-01-27T08:50:58.078Z,9.50
2023-01-27T08:53:25.944Z,7.78
2023-01-27T08:55:56.357Z,8.85
2023-01-27T08:58:24.641Z,8.93
2023-01-27T09:00:51.877Z,8.63
2023-01-27T09:03:19.459Z,8.23
2023-01-27T09:05:48.049Z,8.70
2023-01-27T09:08:15.975Z,8.30
2023-01-27T09:10:43.378Z,8.70
2023-01-27T09:13:10.623Z,9.45
2023-01-27T09:15:38.187Z,8.73
2023-01-27T09:18:06.706Z,8.55
2023-01-27T09:20:37.036Z,8.25
2023-01-27T09:23:05.202Z,8.18
2023-01-27T09:25:32.708Z,7.88
2023-01-27T09:28:00.342Z,8.30
2023-01-27T09:30:28.622Z,8.65
2023-01-27T09:33:00.410Z,9.27
2023-01-27T09:35:31.189Z,7.47
2023-01-27T09:37:59.585Z,8.98
2023-01-27T09:40:50.848Z,8.98
2023-01-27T09:43:20.763Z,11.10
2023-01-27T09:45:54.603Z,9.05
2023-01-27T09:48:27.877Z,9.00
2023-01-27T09:51:03.251Z,7.65
2023-01-27T09:54:09.916Z,8.48
2023-01-27T09:56:55.728Z,8.45
2023-01-27T09:59:37.435Z,7.80
2023-01-27T10:02:11.502Z,8.18
2023-01-27T10:04:38.666Z,8.35
2023-01-27T10:07:24.787Z,8.55
2023-01-27T10:10:11.080Z,8.70
2023-01-27T10:12:38.361Z,9.23
2023-01-27T10:15:08.596Z,8.48
2023-01-27T10:18:02.119Z,8.93
2023-01-27T10:20:36.057Z,9.40
2023-01-27T10:23:12.847Z,8.67
2023-01-27T10:25:45.331Z,9.07
2023-01-27T10:28:13.963Z,7.90
2023-01-27T10:30:45.912Z,8.40
2023-01-27T10:33:13.049Z,8.25
2023-01-27T10:35:53.498Z,7.70
2023-01-27T10:38:27.275Z,8.23
2023-01-27T10:40:54.426Z,8.43
2023-01-27T10:43:40.185Z,7.78
2023-01-27T10:46:10.399Z,7.63
2023-01-27T10:48:50.829Z,8.15
2023-01-27T10:51:20.020Z,8.75
2023-01-27T10:53:50.200Z,8.40
2023-01-27T10:56:28.700Z,8.75
2023-01-27T10:59:03.042Z,9.45
2023-01-27T11:01:35.538Z,8.98
2023-01-27T11:04:05.173Z,8.70
2023-01-27T11:06:35.725Z,8.40
2023-01-27T11:09:07.082Z,9.65
2023-01-27T11:11:44.305Z,9.45
2023-01-27T11:14:15.383Z,8.88
2023-01-27T11:16:45.542Z,8.80
2023-01-27T11:19:24.629Z,8.80
2023-01-27T11:22:06.294Z,7.90
2023-01-27T11:24:43.112Z,8.55
2023-01-27T11:27:45.996Z,7.65
2023-01-27T11:30:17.861Z,8.65
2023-01-27T11:32:53.615Z,8.65
2023-01-27T11:35:20.819Z,9.32
2023-01-27T11:37:52.719Z,8.18
2023-01-27T11:40:28.116Z,7.95
2023-01-27T11:42:58.368Z,6.65
2023-01-27T11:45:25.759Z,7.88
2023-01-27T11:47:55.303Z,7.82
2023-01-27T11:50:24.698Z,8.15
2023-01-27T11:52:56.140Z,7.68
2023-01-27T11:55:29.005Z,9.10
2023-01-27T11:58:01.576Z,8.57
2023-01-27T12:00:46.893Z,8.13
2023-01-27T12:03:23.542Z,7.57
2023-01-27T12:05:59.928Z,7.97
2023-01-27T12:08:37.945Z,8.50
2023-01-27T12:11:17.397Z,8.00
2023-01-27T12:13:55.163Z,8.00
2023-01-27T12:16:24.164Z,7.63
2023-01-27T12:18:56.201Z,7.15
2023-01-27T12:21:34.526Z,8.18
2023-01-27T12:24:01.766Z,7.85
2023-01-27T12:26:39.458Z,8.70
2023-01-27T12:29:08.450Z,7.40
2023-01-27T12:31:44.697Z,7.72
2023-01-27T12:34:18.051Z,8.02
2023-01-27T12:36:45.312Z,7.97
2023-01-27T12:39:28.856Z,8.27
2023-01-27T12:41:55.989Z,8.88
2023-01-27T12:44:23.363Z,9.50
2023-01-27T12:46:59.852Z,9.75
2023-01-27T12:49:31.871Z,9.38
2023-01-27T12:52:02.198Z,8.65
2023-01-27T12:54:32.092Z,8.73
2023-01-27T12:57:07.537Z,9.52
2023-01-27T12:59:35.125Z,8.60
2023-01-27T13:02:06.503Z,9.25
2023-01-27T13:04:36.005Z,8.95
2023-01-27T13:07:08.926Z,9.23
2023-01-27T13:09:40.488Z,10.13
2023-01-27T13:12:16.813Z,9.68
2023-01-27T13:14:44.327Z,9.65
2023-01-27T13:17:30.245Z,10.02
2023-01-27T13:20:02.436Z,9.90
2023-01-27T13:22:30.507Z,9.38
2023-01-27T13:25:00.258Z,10.07
2023-01-27T13:27:30.233Z,9.98
2023-01-27T13:30:28.182Z,9.30
2023-01-27T13:32:58.064Z,10.43
2023-01-27T13:35:26.604Z,9.60
2023-01-27T13:38:05.467Z,9.90
2023-01-27T13:40:39.145Z,9.77
2023-01-27T13:43:21.568Z,9.93
2023-01-27T13:45:55.881Z,10.68
2023-01-27T13:48:32.477Z,10.45
2023-01-27T13:51:06.266Z,9.35
2023-01-27T13:53:33.850Z,9.07
2023-01-27T13:56:19.864Z,9.43
2023-01-27T13:58:53.245Z,9.90
2023-01-27T14:01:40.666Z,8.75
2023-01-27T14:04:26.591Z,8.48
2023-01-27T14:07:14.048Z,7.68
2023-01-27T14:09:44.000Z,8.40
2023-01-27T14:12:14.258Z,8.80
2023-01-27T14:15:00.280Z,8.20
2023-01-27T14:17:45.080Z,8.70
2023-01-27T14:20:45.278Z,8.45
2023-01-27T14:23:15.668Z,8.27
2023-01-27T14:25:49.632Z,7.72
2023-01-27T14:28:21.786Z,7.90
2023-01-27T14:30:56.347Z,7.93
2023-01-27T14:33:38.034Z,8.50
2023-01-27T14:36:22.152Z,9.32
2023-01-27T14:38:49.326Z,9.40
2023-01-27T14:41:25.502Z,8.63
2023-01-27T14:44:01.581Z,8.77
2023-01-27T14:46:48.102Z,9.35
2023-01-27T14:49:24.662Z,9.80
2023-01-27T14:51:57.569Z,8.63
2023-01-27T14:54:30.031Z,8.73
2023-01-27T14:57:14.055Z,7.85
2023-01-27T14:59:59.691Z,9.88
2023-01-27T15:02:26.826Z,8.88
2023-01-27T15:04:53.958Z,8.63
2023-01-27T15:07:41.798Z,8.55
2023-01-27T15:10:21.279Z,8.57
2023-01-27T15:13:05.112Z,8.77
2023-01-27T15:15:43.643Z,9.18
2023-01-27T15:18:14.025Z,9.02
2023-01-27T15:21:07.434Z,9.13
2023-01-27T15:24:00.661Z,9.10
2023-01-27T15:26:29.281Z,8.05
2023-01-27T15:28:58.412Z,10.07
2023-01-27T15:31:27.201Z,9.27
2023-01-27T15:33:56.330Z,9.52
2023-01-27T15:36:31.602Z,9.00
2023-01-27T15:39:11.054Z,9.18
2023-01-27T15:41:38.158Z,9.38
2023-01-27T15:44:17.510Z,9.75
2023-01-27T15:46:54.358Z,9.25
2023-01-27T15:49:35.622Z,9.10
2023-01-27T15:52:11.592Z,8.93
2023-01-27T15:54:40.930Z,9.35
2023-01-27T15:57:22.683Z,9.18
2023-01-27T15:59:58.862Z,9.88
2023-01-27T16:02:28.691Z,8.98
2023-01-27T16:05:06.013Z,9.52
2023-01-27T16:07:34.710Z,8.98
2023-01-27T16:10:02.212Z,8.55
2023-01-27T16:12:32.219Z,9.13
2023-01-27T16:15:02.479Z,9.23
2023-01-27T16:17:33.273Z,8.90
2023-01-27T16:20:20.957Z,8.90
2023-01-27T16:22:49.918Z,11.18
2023-01-27T16:25:26.096Z,10.52
2023-01-27T16:27:57.758Z,10.05
2023-01-27T16:30:27.018Z,9.20
2023-01-27T16:33:04.334Z,8.85
2023-01-27T16:35:52.979Z,9.38
2023-01-27T16:38:23.111Z,9.57
2023-01-27T16:40:53.531Z,9.70
2023-01-27T16:43:25.036Z,9.55
2023-01-27T16:45:53.255Z,10.07
2023-01-27T16:48:40.236Z,11.13
2023-01-27T16:51:21.435Z,10.25
2023-01-27T16:53:49.677Z,10.02
2023-01-27T16:56:19.992Z,9.70
2023-01-27T16:58:49.939Z,10.02
2023-01-27T17:01:23.971Z,10.75
2023-01-27T17:03:52.627Z,10.95
2023-01-27T17:06:20.012Z,11.35
2023-01-27T17:08:48.282Z,10.45
2023-01-27T17:11:22.461Z,10.77
2023-01-27T17:14:13.415Z,7.68
2023-01-27T17:16:46.481Z,10.85
2023-01-27T17:19:16.664Z,10.93
2023-01-27T17:21:49.988Z,11.18
2023-01-27T17:24:19.764Z,11.27
2023-01-27T17:26:49.248Z,11.27
2023-01-27T17:29:18.331Z,11.80
2023-01-27T17:31:46.101Z,10.52
2023-01-27T17:34:20.619Z,11.80
2023-01-27T17:37:06.997Z,12.43
2023-01-27T17:39:34.611Z,11.10
2023-01-27T17:42:01.866Z,10.55
2023-01-27T17:44:29.063Z,11.38
2023-01-27T17:46:56.376Z,10.43
2023-01-27T17:49:23.520Z,10.82
2023-01-27T17:51:51.762Z,11.35
2023-01-27T17:54:38.761Z,11.50
2023-01-27T17:57:22.823Z,11.45
2023-01-27T18:00:10.289Z,10.80
2023-01-27T18:02:49.157Z,11.88
2023-01-27T18:05:19.389Z,11.48
2023-01-27T18:07:46.600Z,9.65
2023-01-27T18:10:29.151Z,9.70
2023-01-27T18:12:56.341Z,10.18
2023-01-27T18:15:49.934Z,10.73
2023-01-27T18:18:20.078Z,9.27
2023-01-27T18:20:53.861Z,9.68
2023-01-27T18:23:24.675Z,9.95
2023-01-27T18:26:02.034Z,8.90
2023-01-27T18:28:29.716Z,9.85
2023-01-27T18:30:56.981Z,10.27
2023-01-27T18:33:24.259Z,9.80
2023-01-27T18:35:58.687Z,9.68
2023-01-27T18:38:27.726Z,9.82
2023-01-27T18:40:55.680Z,9.85
2023-01-27T18:43:23.255Z,9.45
2023-01-27T18:45:50.533Z,9.82
2023-01-27T18:48:18.320Z,8.77
2023-01-27T18:50:46.778Z,9.15
2023-01-27T18:53:14.989Z,9.90
2023-01-27T18:55:42.443Z,9.10
2023-01-27T18:58:12.758Z,9.88
2023-01-27T19:00:44.587Z,9.93
2023-01-27T19:03:25.132Z,10.10
2023-01-27T19:05:52.379Z,9.60
2023-01-27T19:08:20.634Z,10.75
2023-01-27T19:10:48.045Z,9.57
2023-01-27T19:13:15.670Z,10.43
2023-01-27T19:15:49.561Z,9.38
2023-01-27T19:18:20.895Z,11.13
2023-01-27T19:20:48.178Z,12.40
2023-01-27T19:23:16.355Z,11.70
2023-01-27T19:25:44.437Z,10.80
2023-01-27T19:28:14.406Z,12.07
2023-01-27T19:30:41.585Z,11.65
2023-01-27T19:33:27.643Z,11.90
2023-01-27T19:35:58.806Z,12.60
2023-01-27T19:38:26.876Z,11.93
2023-01-27T19:40:54.572Z,12.52
2023-01-27T19:43:22.189Z,11.88
2023-01-27T19:45:50.389Z,12.80
2023-01-27T19:48:18.879Z,13.77
2023-01-27T19:50:46.320Z,12.90
2023-01-27T19:53:14.795Z,13.45
2023-01-27T19:55:42.308Z,13.38
2023-01-27T19:58:25.982Z,12.35
2023-01-27T20:00:54.685Z,12.70
2023-01-27T20:03:23.083Z,12.40
2023-01-27T20:05:50.332Z,12.82
2023-01-27T20:08:18.917Z,14.32
2023-01-27T20:10:46.188Z,13.18
2023-01-27T20:13:14.710Z,12.45
2023-01-27T20:15:42.107Z,13.20
2023-01-27T20:18:10.330Z,13.32
2023-01-27T20:20:37.610Z,13.13
2023-01-27T20:23:04.726Z,13.73
2023-01-27T20:25:31.937Z,13.38
2023-01-27T20:28:00.111Z,12.52
2023-01-27T20:30:27.284Z,13.70
2023-01-27T20:32:56.289Z,13.45
2023-01-27T20:35:23.817Z,12.88
2023-01-27T20:37:51.885Z,13.70
2023-01-27T20:40:20.440Z,12.40
2023-01-27T20:42:48.003Z,13.38
2023-01-27T20:45:15.929Z,13.65
2023-01-27T20:47:43.676Z,13.25
2023-01-27T20:50:11.237Z,12.70
2023-01-27T20:52:38.553Z,13.43
2023-01-27T20:55:06.129Z,12.32
2023-01-27T20:57:34.663Z,12.07
2023-01-27T21:00:01.952Z,12.50
2023-01-27T21:02:29.936Z,12.85
2023-01-27T21:04:57.134Z,11.82
2023-01-27T21:07:24.665Z,12.48
2023-01-27T21:09:53.535Z,11.27
2023-01-27T21:12:21.621Z,11.95
2023-01-27T21:14:48.866Z,11.98
2023-01-27T21:17:16.353Z,11.27
2023-01-27T21:19:43.572Z,11.73
2023-01-27T21:22:10.727Z,11.57
2023-01-27T21:24:37.939Z,12.48
2023-01-27T21:27:05.499Z,12.77
2023-01-27T21:29:32.671Z,12.27
2023-01-27T21:32:00.571Z,12.38
2023-01-27T21:34:27.732Z,12.68
2023-01-27T21:36:55.871Z,13.02
2023-01-27T21:39:23.946Z,12.75
2023-01-27T21:41:53.955Z,11.68
2023-01-27T21:44:39.901Z,12.10
2023-01-27T21:47:07.967Z,12.43
2023-01-27T21:49:58.480Z,12.07
2023-01-27T21:52:26.932Z,11.65
2023-01-27T21:54:54.101Z,11.88
2023-01-27T21:57:21.363Z,12.68
2023-01-27T21:59:48.525Z,12.43
2023-01-27T22:02:16.501Z,11.95
2023-01-27T22:04:44.279Z,11.05
2023-01-27T22:07:12.269Z,12.32
2023-01-27T22:09:39.642Z,11.65
2023-01-27T22:12:07.920Z,12.20
2023-01-27T22:14:35.214Z,11.75
2023-01-27T22:17:02.712Z,11.55
2023-01-27T22:19:29.904Z,11.77
2023-01-27T22:21:57.259Z,11.70
2023-01-27T22:24:24.514Z,10.88
2023-01-27T22:26:51.779Z,11.88
2023-01-27T22:29:19.026Z,11.95
2023-01-27T22:31:46.407Z,12.02
2023-01-27T22:34:13.603Z,11.07
2023-01-27T22:36:40.877Z,11.90
2023-01-27T22:39:08.016Z,11.20
2023-01-27T22:41:35.188Z,11.25
2023-01-27T22:44:02.313Z,11.88
2023-01-27T22:46:29.507Z,11.88
2023-01-27T22:48:56.684Z,11.27
2023-01-27T22:51:23.918Z,11.38
2023-01-27T22:53:51.092Z,11.50
2023-01-27T22:56:18.270Z,12.18
2023-01-27T22:58:45.498Z,13.05
2023-01-27T23:01:12.711Z,12.40
2023-01-27T23:03:39.880Z,11.32
2023-01-27T23:06:07.540Z,11.43
2023-01-27T23:08:35.059Z,12.10
2023-01-27T23:11:03.403Z,11.93
2023-01-27T23:13:30.992Z,11.75
2023-01-27T23:15:58.207Z,12.15
2023-01-27T23:18:25.808Z,12.95
2023-01-27T23:20:53.462Z,13.00
2023-01-27T23:23:22.759Z,12.55
2023-01-27T23:25:50.055Z,12.52
2023-01-27T23:28:19.448Z,12.88
2023-01-27T23:30:47.570Z,11.88
2023-01-27T23:33:15.720Z,12.25
2023-01-27T23:35:43.239Z,12.65
2023-01-27T23:38:26.419Z,13.35
2023-01-27T23:41:01.676Z,12.25
2023-01-27T23:43:30.971Z,13.63
2023-01-27T23:45:58.212Z,13.48
2023-01-27T23:48:25.551Z,13.60
2023-01-27T23:50:52.716Z,13.13
2023-01-27T23:53:20.572Z,13.40
2023-01-27T23:56:00.342Z,13.38
2023-01-27T23:58:28.053Z,13.68
